createdAt,value
2019-03-01T00:02:05.812Z,7.90
2019-03-01T00:05:15.143Z,7.90
2019-03-01T00:08:07.936Z,7.90
2019-03-01T00:11:14.796Z,7.80
2019-03-01T00:14:28.975Z,7.70
2019-03-01T00:17:35.251Z,7.70
2019-03-01T00:20:45.687Z,7.70
2019-03-01T00:24:01.772Z,7.60
2019-03-01T00:26:56.671Z,7.60
2019-03-01T00:30:13.276Z,7.50
2019-03-01T00:32:58.103Z,7.60
2019-03-01T00:35:57.644Z,7.50
2019-03-01T00:38:55.928Z,7.50
2019-03-01T00:41:46.531Z,7.50
2019-03-01T00:44:31.082Z,7.40
2019-03-01T00:47:00.689Z,7.50
2019-03-01T00:49:32.960Z,7.50
2019-03-01T00:52:02.102Z,7.60
2019-03-01T00:54:31.403Z,7.60
2019-03-01T00:57:00.861Z,7.60
2019-03-01T00:59:30.079Z,7.70
2019-03-01T01:01:59.669Z,7.60
2019-03-01T01:04:28.815Z,7.70
2019-03-01T01:06:57.700Z,7.70
2019-03-01T01:09:26.771Z,7.70
2019-03-01T01:11:55.987Z,7.70
2019-03-01T01:14:25.251Z,7.80
2019-03-01T01:16:55.056Z,7.80
2019-03-01T01:19:24.664Z,7.80
2019-03-01T01:21:54.171Z,7.80
2019-03-01T01:24:23.364Z,7.70
2019-03-01T01:26:52.664Z,7.50
2019-03-01T01:29:21.795Z,7.50
2019-03-01T01:31:51.059Z,7.40
2019-03-01T01:34:20.571Z,7.30
2019-03-01T01:36:50.386Z,7.40
2019-03-01T01:39:19.685Z,7.30
2019-03-01T01:41:49.184Z,7.30
2019-03-01T01:44:18.328Z,7.40
2019-03-01T01:46:47.492Z,7.40
2019-03-01T01:49:16.603Z,7.30
2019-03-01T01:51:45.674Z,7.40
2019-03-01T01:54:14.877Z,7.40
2019-03-01T01:56:44.048Z,7.40
2019-03-01T01:59:12.928Z,7.40
2019-03-01T02:01:42.142Z,7.40
2019-03-01T02:04:11.849Z,7.40
2019-03-01T02:06:41.380Z,7.40
2019-03-01T02:09:20.726Z,7.40
2019-03-01T02:11:50.579Z,7.50
2019-03-01T02:14:19.538Z,7.60
2019-03-01T02:16:49.123Z,7.60
2019-03-01T02:19:18.345Z,7.70
2019-03-01T02:21:47.924Z,7.80
2019-03-01T02:25:02.303Z,7.80
2019-03-01T02:27:31.297Z,7.80
2019-03-01T02:30:01.670Z,7.70
2019-03-01T02:32:44.685Z,7.70
2019-03-01T02:35:15.976Z,7.70
2019-03-01T02:37:44.838Z,7.60
2019-03-01T02:40:14.076Z,7.70
2019-03-01T02:42:43.002Z,7.80
2019-03-01T02:45:14.040Z,7.70
2019-03-01T02:47:43.591Z,7.70
2019-03-01T02:50:13.849Z,7.80
2019-03-01T02:52:43.016Z,7.60
2019-03-01T02:55:13.406Z,7.60
2019-03-01T02:57:42.491Z,7.60
2019-03-01T03:00:17.258Z,7.70
2019-03-01T03:02:46.174Z,7.80
2019-03-01T03:05:15.450Z,7.70
2019-03-01T03:07:49.956Z,7.60
2019-03-01T03:10:19.736Z,7.60
2019-03-01T03:12:49.548Z,7.50
2019-03-01T03:15:22.685Z,7.60
2019-03-01T03:17:51.581Z,7.60
2019-03-01T03:20:20.792Z,7.50
2019-03-01T03:22:50.905Z,7.50
2019-03-01T03:25:20.225Z,7.50
2019-03-01T03:27:49.216Z,7.50
2019-03-01T03:30:19.003Z,7.40
2019-03-01T03:32:48.532Z,7.40
2019-03-01T03:35:17.410Z,7.40
2019-03-01T03:37:46.557Z,7.40
2019-03-01T03:40:15.899Z,7.40
2019-03-01T03:42:45.773Z,7.40
2019-03-01T03:45:14.754Z,7.40
2019-03-01T03:47:43.623Z,7.40
2019-03-01T03:50:12.774Z,7.40
2019-03-01T03:52:41.991Z,7.40
2019-03-01T03:55:12.341Z,7.40
2019-03-01T03:57:42.480Z,7.30
2019-03-01T04:00:17.487Z,7.30
2019-03-01T04:02:46.467Z,7.30
2019-03-01T04:05:15.977Z,7.30
2019-03-01T04:07:46.094Z,7.30
2019-03-01T04:10:15.519Z,7.30
2019-03-01T04:12:44.379Z,7.30
2019-03-01T04:15:14.084Z,7.30
2019-03-01T04:17:43.388Z,7.30
2019-03-01T04:20:14.369Z,7.30
2019-03-01T04:22:43.721Z,7.30
2019-03-01T04:25:12.967Z,7.30
2019-03-01T04:27:42.221Z,7.30
2019-03-01T04:30:13.838Z,7.30
2019-03-01T04:32:43.124Z,7.30
2019-03-01T04:35:12.973Z,7.30
2019-03-01T04:37:42.191Z,7.40
2019-03-01T04:40:11.764Z,7.40
2019-03-01T04:42:41.200Z,7.40
2019-03-01T04:45:11.055Z,7.30
2019-03-01T04:47:40.215Z,7.40
2019-03-01T04:50:09.614Z,7.50
2019-03-01T04:52:39.547Z,7.40
2019-03-01T04:55:11.215Z,7.50
2019-03-01T04:57:40.480Z,7.50
2019-03-01T05:00:12.819Z,7.50
2019-03-01T05:02:42.092Z,7.50
2019-03-01T05:05:11.284Z,7.50
2019-03-01T05:07:40.561Z,7.40
2019-03-01T05:10:10.959Z,7.40
2019-03-01T05:12:40.072Z,7.40
2019-03-01T05:15:11.075Z,7.40
2019-03-01T05:17:40.218Z,7.40
2019-03-01T05:20:09.675Z,7.40
2019-03-01T05:22:38.920Z,7.40
2019-03-01T05:25:07.843Z,7.40
2019-03-01T05:27:36.652Z,7.40
2019-03-01T05:30:08.991Z,7.50
2019-03-01T05:32:38.568Z,7.50
2019-03-01T05:35:08.481Z,7.60
2019-03-01T05:37:38.298Z,7.50
2019-03-01T05:40:08.272Z,7.50
2019-03-01T05:42:37.508Z,7.50
2019-03-01T05:45:09.608Z,7.50
2019-03-01T05:47:39.291Z,7.40
2019-03-01T05:50:09.396Z,7.40
2019-03-01T05:52:38.751Z,7.40
2019-03-01T05:55:07.733Z,7.30
2019-03-01T05:57:37.756Z,7.20
2019-03-01T06:00:08.552Z,7.30
2019-03-01T06:03:20.144Z,7.30
2019-03-01T06:05:49.217Z,7.30
2019-03-01T06:08:45.069Z,7.20
2019-03-01T06:11:40.636Z,7.20
2019-03-01T06:14:40.901Z,7.20
2019-03-01T06:17:49.091Z,7.10
2019-03-01T06:20:40.842Z,7.00
2019-03-01T06:23:17.987Z,7.00
2019-03-01T06:26:15.996Z,7.00
2019-03-01T06:29:22.274Z,7.00
2019-03-01T06:32:20.523Z,7.10
2019-03-01T06:35:30.844Z,7.20
2019-03-01T06:38:59.827Z,7.20
2019-03-01T06:42:03.137Z,7.30
2019-03-01T06:45:04.867Z,7.40
2019-03-01T06:47:45.584Z,7.30
2019-03-01T06:50:19.436Z,7.40
2019-03-01T06:52:48.403Z,7.50
2019-03-01T06:55:56.769Z,7.50
2019-03-01T06:58:28.196Z,7.50
2019-03-01T07:01:04.556Z,7.50
2019-03-01T07:03:33.477Z,7.50
2019-03-01T07:06:03.549Z,7.50
2019-03-01T07:08:33.084Z,7.60
2019-03-01T07:11:05.701Z,7.60
2019-03-01T07:13:34.881Z,7.60
2019-03-01T07:16:06.848Z,7.70
2019-03-01T07:18:36.669Z,7.70
2019-03-01T07:21:05.838Z,7.70
2019-03-01T07:23:37.021Z,7.80
2019-03-01T07:26:05.796Z,7.80
2019-03-01T07:28:35.024Z,8.00
2019-03-01T07:31:07.060Z,8.10
2019-03-01T07:33:36.663Z,8.10
2019-03-01T07:36:06.134Z,8.10
2019-03-01T07:38:35.328Z,8.20
2019-03-01T07:41:04.937Z,8.30
2019-03-01T07:43:34.336Z,8.40
2019-03-01T07:46:03.741Z,8.40
2019-03-01T07:48:32.841Z,8.40
2019-03-01T07:51:02.476Z,8.40
2019-03-01T07:53:31.758Z,8.40
2019-03-01T07:56:04.196Z,8.60
2019-03-01T07:58:32.193Z,9.10
2019-03-01T08:01:03.053Z,10.00
2019-03-01T08:03:32.441Z,10.40
2019-03-01T08:06:03.521Z,10.40
2019-03-01T08:08:34.924Z,10.30
2019-03-01T08:11:03.759Z,9.70
2019-03-01T08:13:33.013Z,9.40
2019-03-01T08:16:01.918Z,9.20
2019-03-01T08:18:31.502Z,8.90
2019-03-01T08:21:00.713Z,8.80
2019-03-01T08:23:31.758Z,8.50
2019-03-01T08:26:03.609Z,8.40
2019-03-01T08:28:32.703Z,8.30
2019-03-01T08:31:02.213Z,8.20
2019-03-01T08:33:31.721Z,8.20
2019-03-01T08:36:02.359Z,8.20
2019-03-01T08:38:33.370Z,8.00
2019-03-01T08:41:03.606Z,7.90
2019-03-01T08:43:33.009Z,7.90
2019-03-01T08:46:05.376Z,7.80
2019-03-01T08:48:34.581Z,7.90
2019-03-01T08:51:04.191Z,8.10
2019-03-01T08:53:33.611Z,8.40
2019-03-01T08:56:05.451Z,8.60
2019-03-01T08:58:37.786Z,9.00
2019-03-01T09:01:08.383Z,9.30
2019-03-01T09:03:54.238Z,9.40
2019-03-01T09:06:23.644Z,9.40
2019-03-01T09:08:52.850Z,9.50
2019-03-01T09:11:22.040Z,9.60
2019-03-01T09:13:51.163Z,9.40
2019-03-01T09:16:20.271Z,9.10
2019-03-01T09:18:50.075Z,9.10
2019-03-01T09:21:20.456Z,9.00
2019-03-01T09:23:52.278Z,9.00
2019-03-01T09:26:20.879Z,9.20
2019-03-01T09:28:49.799Z,9.30
2019-03-01T09:31:19.104Z,9.20
2019-03-01T09:33:47.901Z,9.20
2019-03-01T09:36:27.111Z,9.30
2019-03-01T09:38:56.240Z,9.20
2019-03-01T09:41:25.111Z,9.10
2019-03-01T09:43:54.231Z,9.00
2019-03-01T09:46:24.716Z,9.00
2019-03-01T09:48:54.439Z,9.30
2019-03-01T09:51:23.777Z,9.40
2019-03-01T09:53:53.408Z,9.60
2019-03-01T09:56:24.394Z,9.80
2019-03-01T09:58:53.488Z,9.90
2019-03-01T10:01:22.871Z,10.10
2019-03-01T10:03:51.893Z,10.30
2019-03-01T10:06:21.494Z,10.40
2019-03-01T10:08:50.752Z,10.30
2019-03-01T10:11:20.316Z,10.20
2019-03-01T10:13:50.032Z,10.10
2019-03-01T10:16:18.946Z,10.10
2019-03-01T10:18:48.209Z,10.20
2019-03-01T10:21:17.388Z,10.10
2019-03-01T10:23:46.545Z,10.10
2019-03-01T10:26:15.579Z,10.10
2019-03-01T10:28:45.561Z,10.30
2019-03-01T10:31:15.104Z,10.20
2019-03-01T10:33:44.432Z,10.20
2019-03-01T10:36:13.399Z,10.20
2019-03-01T10:38:43.155Z,10.60
2019-03-01T10:41:12.051Z,10.90
2019-03-01T10:43:40.860Z,11.20
2019-03-01T10:46:10.113Z,11.30
2019-03-01T10:48:39.623Z,11.10
2019-03-01T10:51:08.835Z,10.90
2019-03-01T10:53:38.423Z,11.00
2019-03-01T10:56:07.280Z,10.90
2019-03-01T10:58:37.057Z,11.00
2019-03-01T11:01:06.006Z,11.20
2019-03-01T11:03:35.229Z,11.10
2019-03-01T11:06:04.528Z,11.50
2019-03-01T11:08:33.411Z,12.20
2019-03-01T11:11:02.664Z,13.00
2019-03-01T11:13:32.488Z,13.30
2019-03-01T11:16:01.660Z,14.00
2019-03-01T11:18:30.830Z,14.10
2019-03-01T11:21:00.437Z,13.80
2019-03-01T11:23:30.587Z,13.30
2019-03-01T11:25:59.368Z,13.00
2019-03-01T11:28:28.912Z,12.90
2019-03-01T11:30:58.412Z,12.70
2019-03-01T11:33:27.648Z,12.80
2019-03-01T11:35:57.216Z,12.50
2019-03-01T11:38:26.929Z,12.40
2019-03-01T11:40:56.120Z,12.10
2019-03-01T11:43:25.719Z,11.80
2019-03-01T11:45:55.236Z,11.00
2019-03-01T11:48:24.441Z,10.70
2019-03-01T11:50:53.842Z,10.60
2019-03-01T11:53:23.038Z,10.70
2019-03-01T11:55:52.336Z,10.50
2019-03-01T11:58:21.516Z,10.40
2019-03-01T12:00:52.307Z,10.20
2019-03-01T12:03:21.705Z,9.90
2019-03-01T12:05:50.931Z,9.70
2019-03-01T12:08:19.807Z,9.80
2019-03-01T12:10:48.691Z,9.70
2019-03-01T12:13:17.931Z,9.70
2019-03-01T12:15:47.148Z,9.70
2019-03-01T12:18:16.760Z,9.60
2019-03-01T12:20:45.847Z,9.30
2019-03-01T12:23:15.252Z,9.30
2019-03-01T12:25:44.452Z,9.40
2019-03-01T12:28:13.303Z,9.30
2019-03-01T12:30:42.582Z,9.40
2019-03-01T12:33:12.348Z,9.50
2019-03-01T12:35:41.548Z,9.70
2019-03-01T12:38:10.751Z,9.50
2019-03-01T12:40:40.104Z,9.40
2019-03-01T12:43:08.943Z,9.30
2019-03-01T12:45:37.733Z,9.40
2019-03-01T12:48:06.881Z,9.40
2019-03-01T12:50:37.041Z,9.40
2019-03-01T12:53:06.147Z,9.30
2019-03-01T12:55:35.644Z,9.10
2019-03-01T12:58:04.967Z,8.80
2019-03-01T13:00:33.963Z,8.70
2019-03-01T13:03:05.164Z,8.70
2019-03-01T13:05:34.383Z,8.60
2019-03-01T13:08:03.257Z,8.50
2019-03-01T13:10:32.144Z,8.50
2019-03-01T13:13:02.230Z,8.50
2019-03-01T13:15:32.332Z,8.40
2019-03-01T13:18:04.605Z,8.40
2019-03-01T13:20:37.260Z,8.40
2019-03-01T13:23:06.360Z,8.50
2019-03-01T13:25:35.408Z,8.70
2019-03-01T13:28:08.640Z,8.70
2019-03-01T13:30:37.951Z,8.70
2019-03-01T13:33:07.436Z,8.70
2019-03-01T13:35:36.528Z,8.70
2019-03-01T13:38:05.830Z,8.20
2019-03-01T13:40:35.332Z,8.10
2019-03-01T13:43:05.347Z,8.00
2019-03-01T13:45:34.684Z,8.00
2019-03-01T13:48:03.564Z,8.20
2019-03-01T13:50:32.751Z,8.30
2019-03-01T13:53:03.070Z,8.30
2019-03-01T13:55:31.958Z,8.10
2019-03-01T13:58:00.847Z,7.80
2019-03-01T14:00:29.919Z,7.80
2019-03-01T14:02:58.889Z,7.80
2019-03-01T14:05:28.032Z,7.60
2019-03-01T14:07:57.128Z,7.60
2019-03-01T14:10:26.175Z,7.60
2019-03-01T14:12:55.839Z,7.60
2019-03-01T14:15:24.704Z,7.70
2019-03-01T14:17:53.911Z,7.70
2019-03-01T14:20:23.223Z,7.80
2019-03-01T14:22:52.417Z,7.80
2019-03-01T14:25:21.331Z,7.80
2019-03-01T14:27:52.803Z,7.70
2019-03-01T14:30:21.568Z,7.50
2019-03-01T14:32:50.499Z,7.50
2019-03-01T14:35:20.558Z,7.60
2019-03-01T14:37:54.217Z,7.50
2019-03-01T14:40:22.766Z,7.60
2019-03-01T14:42:52.612Z,7.70
2019-03-01T14:45:25.334Z,8.00
2019-03-01T14:47:54.338Z,7.90
2019-03-01T14:50:24.823Z,8.00
2019-03-01T14:52:58.487Z,8.10
2019-03-01T14:55:28.888Z,8.20
2019-03-01T14:58:05.560Z,8.60
2019-03-01T15:01:04.792Z,8.80
2019-03-01T15:03:35.250Z,8.80
2019-03-01T15:06:05.718Z,8.60
2019-03-01T15:08:34.780Z,8.20
2019-03-01T15:11:08.030Z,8.10
2019-03-01T15:13:37.497Z,8.10
2019-03-01T15:16:07.082Z,8.10
2019-03-01T15:18:37.135Z,8.20
2019-03-01T15:21:07.196Z,8.10
2019-03-01T15:23:36.451Z,8.00
2019-03-01T15:26:06.059Z,8.00
2019-03-01T15:28:44.388Z,7.90
2019-03-01T15:31:14.160Z,8.00
2019-03-01T15:33:46.510Z,8.00
2019-03-01T15:36:17.919Z,7.90
2019-03-01T15:38:45.639Z,7.90
2019-03-01T15:41:14.638Z,8.00
2019-03-01T15:43:43.750Z,7.90
2019-03-01T15:46:14.389Z,7.90
2019-03-01T15:48:43.353Z,7.90
2019-03-01T15:51:12.711Z,7.70
2019-03-01T15:53:41.590Z,7.60
2019-03-01T15:56:10.872Z,7.40
2019-03-01T15:58:39.956Z,7.40
2019-03-01T16:01:11.907Z,7.30
2019-03-01T16:03:42.108Z,7.20
2019-03-01T16:06:17.251Z,7.10
2019-03-01T16:08:43.858Z,7.10
2019-03-01T16:11:14.549Z,7.20
2019-03-01T16:13:47.735Z,7.30
2019-03-01T16:16:15.101Z,7.20
2019-03-01T16:18:44.283Z,7.20
2019-03-01T16:21:14.096Z,7.00
2019-03-01T16:23:42.928Z,7.00
2019-03-01T16:26:12.033Z,7.00
2019-03-01T16:28:41.194Z,7.10
2019-03-01T16:31:10.098Z,7.00
2019-03-01T16:33:39.059Z,7.10
2019-03-01T16:36:27.680Z,7.10
2019-03-01T16:38:57.081Z,7.10
2019-03-01T16:41:25.859Z,7.10
2019-03-01T16:43:55.423Z,7.10
2019-03-01T16:46:24.719Z,7.10
2019-03-01T16:48:53.927Z,7.10
2019-03-01T16:51:23.129Z,7.10
2019-03-01T16:53:52.018Z,7.10
2019-03-01T16:56:20.913Z,6.90
2019-03-01T16:58:50.404Z,6.80
2019-03-01T17:01:19.607Z,6.80
2019-03-01T17:03:49.624Z,6.80
2019-03-01T17:06:19.412Z,6.70
2019-03-01T17:08:49.128Z,6.60
2019-03-01T17:11:18.338Z,6.50
2019-03-01T17:13:47.735Z,6.50
2019-03-01T17:16:20.533Z,6.50
2019-03-01T17:18:48.665Z,6.60
2019-03-01T17:21:17.783Z,6.60
2019-03-01T17:23:46.876Z,6.60
2019-03-01T17:26:16.215Z,6.60
2019-03-01T17:28:45.280Z,6.60
2019-03-01T17:31:14.484Z,6.60
2019-03-01T17:33:45.050Z,6.60
2019-03-01T17:36:16.793Z,6.70
2019-03-01T17:38:46.463Z,6.60
2019-03-01T17:41:16.081Z,6.70
2019-03-01T17:43:44.959Z,6.80
2019-03-01T17:46:14.072Z,6.80
2019-03-01T17:48:43.515Z,6.80
2019-03-01T17:51:12.673Z,6.60
2019-03-01T17:53:43.062Z,6.60
2019-03-01T17:56:14.169Z,6.50
2019-03-01T17:58:43.255Z,6.60
2019-03-01T18:01:12.956Z,6.60
2019-03-01T18:03:42.005Z,6.70
2019-03-01T18:06:12.893Z,6.60
2019-03-01T18:08:41.872Z,6.50
2019-03-01T18:11:11.535Z,6.50
2019-03-01T18:13:40.585Z,6.50
2019-03-01T18:16:09.916Z,6.60
2019-03-01T18:18:39.414Z,6.60
2019-03-01T18:21:10.229Z,6.60
2019-03-01T18:23:39.601Z,6.60
2019-03-01T18:26:08.871Z,6.70
2019-03-01T18:28:38.904Z,6.70
2019-03-01T18:31:08.237Z,6.60
2019-03-01T18:33:37.784Z,6.60
2019-03-01T18:36:08.101Z,6.60
2019-03-01T18:38:37.607Z,6.50
2019-03-01T18:41:06.608Z,6.50
2019-03-01T18:43:35.593Z,6.50
2019-03-01T18:46:04.751Z,6.50
2019-03-01T18:48:33.906Z,6.40
2019-03-01T18:51:06.938Z,6.40
2019-03-01T18:53:36.744Z,6.40
2019-03-01T18:56:05.608Z,6.20
2019-03-01T18:58:35.480Z,6.30
2019-03-01T19:01:07.767Z,6.30
2019-03-01T19:03:36.611Z,6.20
2019-03-01T19:06:06.927Z,6.20
2019-03-01T19:08:36.426Z,6.20
2019-03-01T19:11:05.421Z,6.20
2019-03-01T19:13:34.305Z,6.20
2019-03-01T19:16:03.284Z,6.00
2019-03-01T19:18:32.076Z,5.90
2019-03-01T19:21:06.959Z,5.80
2019-03-01T19:23:36.119Z,5.80
2019-03-01T19:26:05.260Z,5.70
2019-03-01T19:28:34.249Z,5.60
2019-03-01T19:31:03.123Z,5.60
2019-03-01T19:33:34.675Z,5.60
2019-03-01T19:36:04.324Z,5.60
2019-03-01T19:38:33.802Z,5.60
2019-03-01T19:41:02.973Z,5.60
2019-03-01T19:43:32.476Z,5.50
2019-03-01T19:46:01.606Z,5.50
2019-03-01T19:48:30.507Z,5.50
2019-03-01T19:51:01.902Z,5.60
2019-03-01T19:53:31.420Z,5.60
2019-03-01T19:56:00.652Z,5.50
2019-03-01T19:58:30.527Z,5.50
2019-03-01T20:00:59.363Z,5.40
2019-03-01T20:03:28.744Z,5.30
2019-03-01T20:05:58.533Z,5.40
2019-03-01T20:08:29.811Z,5.40
2019-03-01T20:10:58.579Z,5.40
2019-03-01T20:13:27.480Z,5.40
2019-03-01T20:15:57.372Z,5.40
2019-03-01T20:18:26.223Z,5.30
2019-03-01T20:20:55.874Z,5.30
2019-03-01T20:23:26.454Z,5.30
2019-03-01T20:25:55.507Z,5.30
2019-03-01T20:28:25.306Z,5.30
2019-03-01T20:30:55.709Z,5.30
2019-03-01T20:33:27.117Z,5.20
2019-03-01T20:35:56.900Z,5.20
2019-03-01T20:38:26.012Z,5.30
2019-03-01T20:40:55.112Z,5.30
2019-03-01T20:43:24.761Z,5.40
2019-03-01T20:45:53.964Z,5.50
2019-03-01T20:48:25.640Z,5.60
2019-03-01T20:50:54.191Z,5.60
2019-03-01T20:53:23.089Z,5.50
2019-03-01T20:55:52.220Z,5.50
2019-03-01T20:58:22.164Z,5.30
2019-03-01T21:00:51.342Z,5.30
2019-03-01T21:03:24.898Z,5.30
2019-03-01T21:05:51.926Z,5.30
2019-03-01T21:08:21.763Z,5.40
2019-03-01T21:10:51.096Z,5.40
2019-03-01T21:13:20.331Z,5.40
2019-03-01T21:15:49.380Z,5.30
2019-03-01T21:18:18.884Z,5.30
2019-03-01T21:20:50.574Z,5.20
2019-03-01T21:23:18.515Z,5.20
2019-03-01T21:25:48.039Z,5.40
2019-03-01T21:28:17.725Z,5.40
2019-03-01T21:30:47.128Z,5.50
2019-03-01T21:33:16.267Z,5.50
2019-03-01T21:35:47.734Z,5.40
2019-03-01T21:38:16.255Z,5.40
2019-03-01T21:40:46.973Z,5.40
2019-03-01T21:43:16.907Z,5.40
2019-03-01T21:45:46.512Z,5.40
2019-03-01T21:48:15.916Z,5.40
2019-03-01T21:50:45.151Z,5.40
2019-03-01T21:53:14.528Z,5.30
2019-03-01T21:55:43.720Z,5.30
2019-03-01T21:58:12.816Z,5.30
2019-03-01T22:00:42.631Z,5.40
2019-03-01T22:03:12.229Z,5.40
2019-03-01T22:05:41.066Z,5.60
2019-03-01T22:08:12.988Z,5.60
2019-03-01T22:10:40.364Z,5.80
2019-03-01T22:13:09.300Z,5.60
2019-03-01T22:15:38.091Z,5.60
2019-03-01T22:18:06.895Z,5.70
2019-03-01T22:20:36.044Z,5.70
2019-03-01T22:23:05.255Z,5.50
2019-03-01T22:25:37.942Z,5.30
2019-03-01T22:28:05.983Z,5.30
2019-03-01T22:30:38.059Z,5.30
2019-03-01T22:33:07.623Z,5.30
2019-03-01T22:35:36.492Z,5.30
2019-03-01T22:38:05.716Z,5.30
2019-03-01T22:40:35.028Z,5.20
2019-03-01T22:43:03.799Z,5.30
2019-03-01T22:45:32.863Z,5.30
2019-03-01T22:48:02.423Z,5.30
2019-03-01T22:50:31.300Z,5.30
2019-03-01T22:53:03.250Z,5.30
2019-03-01T22:55:33.542Z,5.40
2019-03-01T22:58:06.553Z,5.40
2019-03-01T23:01:15.960Z,5.30
2019-03-01T23:03:51.599Z,5.30
2019-03-01T23:06:21.487Z,5.40
2019-03-01T23:08:50.475Z,5.40
2019-03-01T23:11:19.448Z,5.50
2019-03-01T23:13:48.388Z,5.50
2019-03-01T23:16:18.847Z,5.50
2019-03-01T23:18:56.432Z,5.40
2019-03-01T23:21:19.591Z,5.40
2019-03-01T23:23:48.491Z,5.40
2019-03-01T23:26:18.604Z,5.30
2019-03-01T23:28:49.260Z,5.20
2019-03-01T23:31:18.701Z,5.20
2019-03-01T23:33:48.377Z,5.30
2019-03-01T23:36:17.680Z,5.40
2019-03-01T23:38:50.191Z,5.30
2019-03-01T23:41:18.527Z,5.30
2019-03-01T23:43:47.732Z,5.30
2019-03-01T23:46:17.237Z,5.30
2019-03-01T23:48:48.907Z,5.30
2019-03-01T23:51:17.902Z,5.30
2019-03-01T23:53:46.902Z,5.20
2019-03-01T23:56:16.223Z,5.10
2019-03-01T23:58:48.003Z,5.00
